Overview Statistics Trail Chart Weather Telemetry Raw packets
 

This is the latest recevied weather packets stored in our database for station/object Seibranz. If no packets are shown the sender has not sent any weather packets the latest 10 day(s).

<< 1 2 3 4 >>
Time Temp. Humidity Pressure Rain* Wind** Luminosity Snow
1788580929 17.78° C 78% 1017.5 hPa 0 mm - - -
1788579130 18.33° C 77% 1017.2 hPa 0 mm - - -
1788577329 18.33° C 75% 1016.7 hPa 0 mm - - -
1788575529 18.33° C 76% 1016.5 hPa 0 mm - - -
1788573729 17.78° C 77% 1016.2 hPa 0 mm - - -
1788571929 19.44° C 71% 1016 hPa 0 mm - - -
1788570129 20.56° C 69% 1015.8 hPa 0 mm - - -
1788568332 18.89° C 75% 1015.7 hPa 0 mm - - -
1788566531 16.67° C 82% 1015.7 hPa 0 mm - - -
1788564731 16.11° C 83% 1015.4 hPa 0 mm - - -
1788562931 17.78° C 78% 1015.5 hPa 0 mm - - -
1788561131 18.89° C 74% 1015.5 hPa 0 mm - - -
1788557531 19.44° C 72% 1015.4 hPa 0 mm - - -
1788555731 17.78° C 77% 1015.2 hPa 0 mm - - -
1788553931 18.89° C 72% 1015.3 hPa 0 mm - - -
1788552130 18.89° C 73% 1015.2 hPa 0 mm - - -
1788550330 20.56° C 67% 1015 hPa 0 mm - - -
1788548531 20° C 68% 1014.7 hPa 0 mm - - -
1788546731 21.67° C 63% 1014.5 hPa 0 mm - - -
1788544931 22.78° C 60% 1014.1 hPa 0 mm - - -
1788543130 23.89° C 56% 1013.9 hPa 0 mm - - -
1788541344 24.44° C 53% 1014 hPa 0 mm - - -
1788539531 25.56° C 50% 1014.1 hPa 0 mm - - -
1788537731 26.11° C 48% 1014.1 hPa 0 mm - - -
1788535931 26.67° C 48% 1014.4 hPa 0 mm - - -

* Rain since midnight (hover to see other rain measurements)
** Current wind speed in m/s (hover to see current wind gust speed)